METAR (acronimo di METeorological Air Report) è un messaggio meteo emesso nella maggior parte dei casi in ambito aeroportuale

LIPF - Ferrara, It
Distanza dalla Stazione: 8 km
Ultimo Aggiornamento: Sabato 21 Settembre 2019 19:55 CEST
Dati non Recenti
Sereno
Sereno
 Wind from varies
Vento: variabile 0 km/h
Temperatura: 18°C
Punto di Rugiada: 11°C
Umidità: 64%
Barometro: 1022 hPa
Condizioni: Sereno
Visibilità: superiore a 10 km
2019/09/21 17:55 LIPF 211755Z /////KT CAVOK 18/11 Q1022
LIPE - Bologna Borgo Panigale, It
Distanza dalla Stazione: 46 km
Ultimo Aggiornamento: Domenica 22 Settembre 2019 07:20 CEST
Prevalentemente Nuvoloso
Prevalentemente Nuvoloso
 Wind from Ovest-Nord-Ovest
Vento: Ovest-Nord-Ovest 7 km/h
Temperatura: 14°C
Punto di Rugiada: 12°C
Umidità: 88%
Barometro: 1018 hPa
Nuvole: Prevalentemente Nuvoloso
Visibilità: 10 km
Nuvole nel Dettaglio: Prevalentemente Nuvoloso 1524 m
2019/09/22 05:20 LIPE 220520Z 29004KT 9999 BKN050 14/12 Q1018
LIMF - Torino Caselle, It
Distanza dalla Stazione: 320 km
Ultimo Aggiornamento: Domenica 22 Settembre 2019 07:20 CEST
Prevalentemente Nuvoloso
Prevalentemente Nuvoloso
 Wind from varies
Vento: variabile 4 km/h
Temperatura: 14°C
Punto di Rugiada: 13°C
Umidità: 94%
Barometro: 1020 hPa
Nuvole: Prevalentemente Nuvoloso
Visibilità: 8 km
Nuvole nel Dettaglio: Prevalentemente Nuvoloso 1219 m
2019/09/22 05:20 LIMF 220520Z VRB02KT 8000 BKN040 14/13 Q1020
 
LIML - Milano Malpensa, It
Distanza dalla Stazione: 249 km
Ultimo Aggiornamento: Giovedì 19 Settembre 2019 10:50 CEST
Dati non Recenti
Parzialmente Nuvoloso
Parzialmente Nuvoloso
 Wind from varies
Vento: variabile 6 km/h
Temperatura: 16°C
Punto di Rugiada: 14°C
Umidità: 88%
Barometro: 1020 hPa
Nuvole: Parzialmente Nuvoloso
Visibilità: 10 km
Nuvole nel Dettaglio: Parzialmente Nuvoloso 305 m
Parzialmente Nuvoloso 1829 m
2019/09/19 08:50 LIML 190850Z VRB03KT 150V250 9999 SCT010 SCT060 16/14 Q1020 NOSIG
LIME - Bergamo Orio al Serio, It
Distanza dalla Stazione: 181 km
Ultimo Aggiornamento: Domenica 22 Settembre 2019 07:20 CEST
Pioggia Leggera, Prevalentemente Nuvoloso
Pioggia Leggera, Prevalentemente Nuvoloso
 Wind from varies
Vento: variabile 2 km/h
Temperatura: 15°C
Punto di Rugiada: 13°C
Umidità: 88%
Barometro: 1019 hPa
Condizioni: Pioggia Leggera
Nuvole: Prevalentemente Nuvoloso
Visibilità: 10 km
Nuvole nel Dettaglio: Prevalentemente Nuvoloso 1829 m
2019/09/22 05:20 LIME 220520Z VRB01KT 9999 -RA BKN060 15/13 Q1019 NOSIG
LIPZ - Venezia Tessera, It
Distanza dalla Stazione: 93 km
Ultimo Aggiornamento: Domenica 22 Settembre 2019 07:20 CEST
Parzialmente Nuvoloso
Parzialmente Nuvoloso
 Wind from Nord-Nord-Est
Vento: Nord-Nord-Est 11 km/h
Temperatura: 12°C
Punto di Rugiada: 8°C
Umidità: 77%
Barometro: 1019 hPa
Nuvole: Parzialmente Nuvoloso
Visibilità: 10 km
Nuvole nel Dettaglio: Parzialmente Nuvoloso 2134 m
2019/09/22 05:20 LIPZ 220520Z 02006KT 9999 SCT070 12/08 Q1019 NOSIG
 
LIVT - Trieste, It
Distanza dalla Stazione: 179 km
Ultimo Aggiornamento: Domenica 22 Settembre 2019 06:55 CEST
Sereno
Sereno
 Wind from Nord-Est
Vento: Nord-Est 15 km/h
Temperatura: 14°C
Punto di Rugiada: 8°C
Umidità: 67%
Barometro: 1020 hPa
Condizioni: Sereno
Visibilità: superiore a 10 km
2019/09/22 04:55 LIVT 220455Z 04008KT CAVOK 14/08 Q1020 RMK SKC QUK 0 QUL 0 VIS MAR 20 KM VIS MIN 9999
LIMJ - Genova, It
Distanza dalla Stazione: 229 km
Ultimo Aggiornamento: Domenica 22 Settembre 2019 07:20 CEST
Pioggia Leggera, Prevalentemente Nuvoloso
Pioggia Leggera, Prevalentemente Nuvoloso
 Wind from Nord-Est
Vento: Nord-Est 15 km/h
Temperatura: 16°C
Punto di Rugiada: 13°C
Umidità: 83%
Barometro: 1017 hPa
Condizioni: Pioggia Leggera
Nuvole: Prevalentemente Nuvoloso
Visibilità: 10 km
Nuvole nel Dettaglio: Qualche Nuvola 671 m
Prevalentemente Nuvoloso 1067 m
2019/09/22 05:20 LIMJ 220520Z 04008KT 9999 -RA FEW022 BKN035 16/13 Q1017
LIRQ - Firenze Amerigo Vespucci, It
Distanza dalla Stazione: 119 km
Ultimo Aggiornamento: Domenica 22 Settembre 2019 07:20 CEST
Pioggia Leggera, Parzialmente Nuvoloso
Pioggia Leggera, Parzialmente Nuvoloso
 Wind from Ovest
Vento: Ovest 13 km/h
Temperatura: 16°C
Punto di Rugiada: 14°C
Umidità: 88%
Barometro: 1016 hPa
Condizioni: Pioggia Leggera
Nuvole: Parzialmente Nuvoloso
Visibilità: 10 km
Nuvole nel Dettaglio: Parzialmente Nuvoloso 1829 m
2019/09/22 05:20 LIRQ 220520Z 27007KT 9999 -RA SCT060 16/14 Q1016
 
LIPY - Ancona, It
Distanza dalla Stazione: 189 km
Ultimo Aggiornamento: Domenica 22 Settembre 2019 06:50 CEST
Sereno
Sereno
 Wind from Sud
Vento: Sud 6 km/h
Temperatura: 15°C
Punto di Rugiada: 14°C
Umidità: 94%
Barometro: 1020 hPa
Condizioni: Sereno
Visibilità: superiore a 10 km
2019/09/22 04:50 LIPY 220450Z 17003KT 140V200 CAVOK 15/14 Q1020
LIBP - Pescara, It
Distanza dalla Stazione: 333 km
Ultimo Aggiornamento: Domenica 22 Settembre 2019 06:50 CEST
Nuvoloso
Nuvoloso
 Wind from Sud-Ovest
Vento: Sud-Ovest 7 km/h
Temperatura: 14°C
Punto di Rugiada: 13°C
Umidità: 94%
Barometro: 1020 hPa
Nuvole: Nuvoloso
Visibilità: 10 km
Nuvole nel Dettaglio: Nuvoloso 3658 m
2019/09/22 04:50 LIBP 220450Z AUTO 23004KT 190V270 9999 OVC120/// 14/13 Q1020
LIRF - Roma-Fiumicino, It
Distanza dalla Stazione: 334 km
Ultimo Aggiornamento: Domenica 22 Settembre 2019 07:20 CEST
Thunderstorm rain, Parzialmente Nuvoloso
Thunderstorm rain, Parzialmente Nuvoloso
 Wind from Est-Sud-Est
Vento: Est-Sud-Est 17 km/h
Temperatura: 18°C
Punto di Rugiada: 17°C
Umidità: 94%
Barometro: 1018 hPa
Condizioni: Thunderstorm Rain
Nuvole: Parzialmente Nuvoloso
Visibilità: 7 km
Nuvole nel Dettaglio: Qualche Nuvola 610 m
Parzialmente Nuvoloso 1524 m
2019/09/22 05:20 LIRF 220520Z 11009KT 7000 TSRA FEW020CB SCT050 18/17 Q1018 NOSIG
 
LIRN - Napoli Capodichino, It
Distanza dalla Stazione: 494 km
Ultimo Aggiornamento: Domenica 22 Settembre 2019 07:20 CEST
Sereno
Sereno
 Wind from Nord
Vento: Nord 7 km/h
Temperatura: 18°C
Punto di Rugiada: 11°C
Umidità: 64%
Barometro: 1019 hPa
Condizioni: Sereno
Visibilità: superiore a 10 km
2019/09/22 05:20 LIRN 220520Z 36004KT CAVOK 18/11 Q1019 NOSIG
LIBD - Bari Palese, It
Distanza dalla Stazione: 594 km
Ultimo Aggiornamento: Domenica 22 Settembre 2019 07:20 CEST
Sereno
Sereno
 Wind from Sud
Vento: Sud 7 km/h
Temperatura: 14°C
Punto di Rugiada: 12°C
Umidità: 88%
Barometro: 1020 hPa
Condizioni: Sereno
Visibilità: superiore a 10 km
2019/09/22 05:20 LIBD 220520Z 17004KT CAVOK 14/12 Q1020
LIBG - Taranto Grottaglie, It
Distanza dalla Stazione: 670 km
Ultimo Aggiornamento: Sabato 21 Settembre 2019 19:50 CEST
Dati non Recenti
Sereno
Sereno
 Wind from Est
Vento: Est 6 km/h
Temperatura: 19°C
Punto di Rugiada: 14°C
Umidità: 73%
Barometro: 1021 hPa
Condizioni: Sereno
Visibilità: superiore a 10 km
2019/09/21 17:50 LIBG 211750Z 08003KT 050V110 CAVOK 19/14 Q1021
 
LICR - Reggio Calabria, It
Distanza dalla Stazione: 819 km
Ultimo Aggiornamento: Domenica 22 Settembre 2019 06:50 CEST
Qualche Nuvola
Qualche Nuvola
 Wind from Sud
Vento: Sud 11 km/h
Temperatura: 24°C
Punto di Rugiada: 19°C
Umidità: 74%
Barometro: 1020 hPa
Nuvole: Qualche Nuvola
Visibilità: 10 km
Nuvole nel Dettaglio: Qualche Nuvola 914 m
2019/09/22 04:50 LICR 220450Z 17006KT 9999 FEW030 24/19 Q1020
LICJ - Palermo Punta Raisi, It
Distanza dalla Stazione: 762 km
Ultimo Aggiornamento: Domenica 22 Settembre 2019 07:20 CEST
Parzialmente Nuvoloso
Parzialmente Nuvoloso
 Wind from Sud
Vento: Sud 13 km/h
Temperatura: 26°C
Punto di Rugiada: 16°C
Umidità: 54%
Barometro: 1017 hPa
Nuvole: Parzialmente Nuvoloso
Visibilità: 10 km
Nuvole nel Dettaglio: Parzialmente Nuvoloso 1981 m
2019/09/22 05:20 LICJ 220520Z 19007KT 160V220 9999 SCT065 26/16 Q1017
LICC - Catania Fontanarossa, It
Distanza dalla Stazione: 866 km
Ultimo Aggiornamento: Domenica 22 Settembre 2019 07:20 CEST
Qualche Nuvola
Qualche Nuvola
 Wind from Nord-Nord-Ovest
Vento: Nord-Nord-Ovest 6 km/h
Temperatura: 21°C
Punto di Rugiada: 21°C
Umidità: 100%
Barometro: 1020 hPa
Nuvole: Qualche Nuvola
Visibilità: 8 km
Nuvole nel Dettaglio: Qualche Nuvola 1524 m
2019/09/22 05:20 LICC 220520Z 34003KT 8000 FEW050 21/21 Q1020
 
LIEE - Cagliari Elmas, It
Distanza dalla Stazione: 655 km
Ultimo Aggiornamento: Domenica 22 Settembre 2019 07:20 CEST
Sereno
Sereno
 Wind from Est-Sud-Est
Vento: Est-Sud-Est 22 km/h
Temperatura: 26°C
Punto di Rugiada: 21°C
Umidità: 74%
Barometro: 1013 hPa
Condizioni: Sereno
Visibilità: superiore a 10 km
2019/09/22 05:20 LIEE 220520Z 12012KT CAVOK 26/21 Q1013
LIEO - Olbia, It
Distanza dalla Stazione: 463 km
Ultimo Aggiornamento: Domenica 22 Settembre 2019 07:20 CEST
Parzialmente Nuvoloso
Parzialmente Nuvoloso
 Wind from varies
Vento: variabile 4 km/h
Temperatura: 21°C
Punto di Rugiada: 18°C
Umidità: 83%
Barometro: 1014 hPa
Nuvole: Parzialmente Nuvoloso
Visibilità: 10 km
Nuvole nel Dettaglio: Qualche Nuvola 610 m
Parzialmente Nuvoloso 1524 m
2019/09/22 05:20 LIEO 220520Z VRB02KT 9999 FEW020 SCT050 21/18 Q1014
LICG - Pantelleria, It
Distanza dalla Stazione: 893 km
Ultimo Aggiornamento: Domenica 22 Settembre 2019 06:50 CEST
Temporale Leggero, Pioggia, Parzialmente Nuvoloso
Temporale Leggero, Pioggia, Parzialmente Nuvoloso
 Wind from Sud-Sud-Est
Vento: Sud-Sud-Est 26 km/h
Temperatura: 24°C
Punto di Rugiada: 16°C
Umidità: 61%
Barometro: 1018 hPa
Condizioni: Temporale Leggero, Pioggia
Nuvole: Parzialmente Nuvoloso
Visibilità: 10 km
Nuvole nel Dettaglio: Qualche Nuvola 305 m
Parzialmente Nuvoloso 914 m
2019/09/22 04:50 LICG 220450Z 16014KT 130V190 9999 -TSRA FEW010CB SCT030 24/16 Q1018